sensor_id;sensor_type;location;lat;lon;timestamp;P1;durP1;ratioP1;P2;durP2;ratioP2
29320;SDS011;16323;51.130;6.612;2022-11-15T00:00:30;2.78;;;1.70;;
29320;SDS011;16323;51.130;6.612;2022-11-15T00:02:57;4.03;;;1.70;;
29320;SDS011;16323;51.130;6.612;2022-11-15T00:05:24;2.28;;;1.60;;
29320;SDS011;16323;51.130;6.612;2022-11-15T00:07:51;2.65;;;1.60;;
29320;SDS011;16323;51.130;6.612;2022-11-15T00:10:17;2.25;;;1.40;;
29320;SDS011;16323;51.130;6.612;2022-11-15T00:12:44;3.17;;;1.83;;
29320;SDS011;16323;51.130;6.612;2022-11-15T00:15:11;2.17;;;1.70;;
29320;SDS011;16323;51.130;6.612;2022-11-15T00:17:39;3.28;;;1.80;;
29320;SDS011;16323;51.130;6.612;2022-11-15T00:20:06;2.03;;;1.40;;
29320;SDS011;16323;51.130;6.612;2022-11-15T00:22:34;3.03;;;1.58;;
29320;SDS011;16323;51.130;6.612;2022-11-15T00:25:00;2.42;;;1.80;;
29320;SDS011;16323;51.130;6.612;2022-11-15T00:27:28;3.05;;;1.63;;
29320;SDS011;16323;51.130;6.612;2022-11-15T00:29:55;2.53;;;1.65;;
29320;SDS011;16323;51.130;6.612;2022-11-15T00:32:21;2.65;;;1.58;;
29320;SDS011;16323;51.130;6.612;2022-11-15T00:34:49;2.28;;;1.73;;
29320;SDS011;16323;51.130;6.612;2022-11-15T00:37:16;1.95;;;1.40;;
29320;SDS011;16323;51.130;6.612;2022-11-15T00:39:43;1.48;;;1.33;;
29320;SDS011;16323;51.130;6.612;2022-11-15T00:42:10;2.40;;;1.70;;
29320;SDS011;16323;51.130;6.612;2022-11-15T00:44:36;2.72;;;1.38;;
29320;SDS011;16323;51.130;6.612;2022-11-15T00:47:03;2.38;;;1.80;;
29320;SDS011;16323;51.130;6.612;2022-11-15T00:49:30;1.90;;;1.40;;
29320;SDS011;16323;51.130;6.612;2022-11-15T00:51:58;1.98;;;1.35;;
29320;SDS011;16323;51.130;6.612;2022-11-15T00:54:25;1.92;;;1.50;;
29320;SDS011;16323;51.130;6.612;2022-11-15T00:56:51;2.47;;;1.60;;
29320;SDS011;16323;51.130;6.612;2022-11-15T00:59:18;1.98;;;1.40;;
29320;SDS011;16323;51.130;6.612;2022-11-15T01:01:45;1.48;;;1.38;;
29320;SDS011;16323;51.130;6.612;2022-11-15T01:04:12;2.28;;;1.70;;
29320;SDS011;16323;51.130;6.612;2022-11-15T01:06:39;2.13;;;1.60;;
29320;SDS011;16323;51.130;6.612;2022-11-15T01:09:07;2.03;;;1.45;;
29320;SDS011;16323;51.130;6.612;2022-11-15T01:11:34;1.90;;;1.42;;
29320;SDS011;16323;51.130;6.612;2022-11-15T01:14:01;2.42;;;1.48;;
29320;SDS011;16323;51.130;6.612;2022-11-15T01:16:27;2.28;;;1.38;;
29320;SDS011;16323;51.130;6.612;2022-11-15T01:18:54;1.67;;;1.40;;
29320;SDS011;16323;51.130;6.612;2022-11-15T01:21:21;2.78;;;1.58;;
29320;SDS011;16323;51.130;6.612;2022-11-15T01:23:48;3.00;;;1.80;;
29320;SDS011;16323;51.130;6.612;2022-11-15T01:26:19;2.42;;;1.60;;
29320;SDS011;16323;51.130;6.612;2022-11-15T01:28:46;2.05;;;1.67;;
29320;SDS011;16323;51.130;6.612;2022-11-15T01:31:14;2.20;;;1.40;;
29320;SDS011;16323;51.130;6.612;2022-11-15T01:33:43;2.30;;;1.73;;
29320;SDS011;16323;51.130;6.612;2022-11-15T01:36:11;2.85;;;1.50;;
29320;SDS011;16323;51.130;6.612;2022-11-15T01:38:39;2.13;;;1.50;;
29320;SDS011;16323;51.130;6.612;2022-11-15T01:41:06;1.88;;;1.52;;
29320;SDS011;16323;51.130;6.612;2022-11-15T01:43:40;2.28;;;1.63;;
29320;SDS011;16323;51.130;6.612;2022-11-15T01:46:12;2.40;;;1.60;;
29320;SDS011;16323;51.130;6.612;2022-11-15T01:48:48;2.22;;;1.50;;
29320;SDS011;16323;51.130;6.612;2022-11-15T01:51:17;1.42;;;1.13;;
29320;SDS011;16323;51.130;6.612;2022-11-15T01:53:47;1.80;;;1.33;;
29320;SDS011;16323;51.130;6.612;2022-11-15T01:56:19;1.70;;;1.58;;
29320;SDS011;16323;51.130;6.612;2022-11-15T01:58:50;1.30;;;1.10;;
29320;SDS011;16323;51.130;6.612;2022-11-15T02:01:18;2.15;;;1.48;;
29320;SDS011;16323;51.130;6.612;2022-11-15T02:03:46;1.38;;;1.15;;
29320;SDS011;16323;51.130;6.612;2022-11-15T02:06:18;2.10;;;1.25;;
29320;SDS011;16323;51.130;6.612;2022-11-15T02:08:46;1.67;;;1.30;;
29320;SDS011;16323;51.130;6.612;2022-11-15T02:11:13;1.50;;;1.35;;
29320;SDS011;16323;51.130;6.612;2022-11-15T02:13:40;3.00;;;1.55;;
29320;SDS011;16323;51.130;6.612;2022-11-15T02:16:11;2.03;;;1.27;;
29320;SDS011;16323;51.130;6.612;2022-11-15T02:18:46;2.28;;;1.30;;
29320;SDS011;16323;51.130;6.612;2022-11-15T02:21:19;2.15;;;1.48;;
29320;SDS011;16323;51.130;6.612;2022-11-15T02:27:08;2.20;;;1.20;;
29320;SDS011;16323;51.130;6.612;2022-11-15T02:32:50;3.20;;;1.33;;
29320;SDS011;16323;51.130;6.612;2022-11-15T02:35:22;2.20;;;1.45;;
29320;SDS011;16323;51.130;6.612;2022-11-15T02:38:02;1.40;;;1.10;;
29320;SDS011;16323;51.130;6.612;2022-11-15T02:40:38;1.70;;;1.20;;
29320;SDS011;16323;51.130;6.612;2022-11-15T02:43:12;1.88;;;1.20;;
29320;SDS011;16323;51.130;6.612;2022-11-15T02:46:03;1.85;;;1.20;;
29320;SDS011;16323;51.130;6.612;2022-11-15T02:48:39;2.13;;;1.23;;
29320;SDS011;16323;51.130;6.612;2022-11-15T02:51:07;1.60;;;1.33;;
29320;SDS011;16323;51.130;6.612;2022-11-15T02:53:35;2.22;;;1.40;;
29320;SDS011;16323;51.130;6.612;2022-11-15T02:56:02;1.60;;;1.30;;
29320;SDS011;16323;51.130;6.612;2022-11-15T03:01:31;2.97;;;1.23;;
29320;SDS011;16323;51.130;6.612;2022-11-15T03:04:07;2.38;;;1.20;;
29320;SDS011;16323;51.130;6.612;2022-11-15T03:06:45;1.85;;;1.30;;
29320;SDS011;16323;51.130;6.612;2022-11-15T03:09:20;1.63;;;1.05;;
29320;SDS011;16323;51.130;6.612;2022-11-15T03:11:56;2.10;;;1.25;;
29320;SDS011;16323;51.130;6.612;2022-11-15T03:14:29;1.75;;;1.38;;
29320;SDS011;16323;51.130;6.612;2022-11-15T03:17:04;2.08;;;1.25;;
29320;SDS011;16323;51.130;6.612;2022-11-15T03:19:39;2.08;;;1.15;;
29320;SDS011;16323;51.130;6.612;2022-11-15T03:22:11;1.67;;;1.42;;
29320;SDS011;16323;51.130;6.612;2022-11-15T03:24:41;1.25;;;1.02;;
29320;SDS011;16323;51.130;6.612;2022-11-15T03:27:12;1.70;;;1.05;;
29320;SDS011;16323;51.130;6.612;2022-11-15T03:29:42;2.17;;;1.52;;
29320;SDS011;16323;51.130;6.612;2022-11-15T03:32:15;2.28;;;1.23;;
29320;SDS011;16323;51.130;6.612;2022-11-15T03:34:46;1.75;;;1.20;;
29320;SDS011;16323;51.130;6.612;2022-11-15T03:37:16;1.98;;;1.27;;
29320;SDS011;16323;51.130;6.612;2022-11-15T03:39:46;1.88;;;1.50;;
29320;SDS011;16323;51.130;6.612;2022-11-15T03:42:16;1.92;;;1.40;;
29320;SDS011;16323;51.130;6.612;2022-11-15T03:44:50;2.05;;;1.40;;
29320;SDS011;16323;51.130;6.612;2022-11-15T03:47:23;1.67;;;1.13;;
29320;SDS011;16323;51.130;6.612;2022-11-15T03:49:55;1.63;;;1.20;;
29320;SDS011;16323;51.130;6.612;2022-11-15T03:52:25;2.80;;;1.50;;
29320;SDS011;16323;51.130;6.612;2022-11-15T03:54:57;2.15;;;1.10;;
29320;SDS011;16323;51.130;6.612;2022-11-15T03:57:26;1.88;;;1.27;;
29320;SDS011;16323;51.130;6.612;2022-11-15T03:59:53;1.70;;;1.20;;
29320;SDS011;16323;51.130;6.612;2022-11-15T04:02:21;1.30;;;1.15;;
29320;SDS011;16323;51.130;6.612;2022-11-15T04:04:49;1.95;;;1.38;;
29320;SDS011;16323;51.130;6.612;2022-11-15T04:07:15;2.50;;;1.50;;
29320;SDS011;16323;51.130;6.612;2022-11-15T04:09:42;1.35;;;1.20;;
29320;SDS011;16323;51.130;6.612;2022-11-15T04:12:26;2.00;;;1.10;;
29320;SDS011;16323;51.130;6.612;2022-11-15T04:15:03;2.15;;;1.02;;
29320;SDS011;16323;51.130;6.612;2022-11-15T04:17:36;1.58;;;1.30;;
29320;SDS011;16323;51.130;6.612;2022-11-15T04:20:06;1.75;;;1.08;;
29320;SDS011;16323;51.130;6.612;2022-11-15T04:22:52;1.92;;;1.20;;
29320;SDS011;16323;51.130;6.612;2022-11-15T04:25:37;2.20;;;1.30;;
29320;SDS011;16323;51.130;6.612;2022-11-15T04:28:04;1.40;;;1.00;;
29320;SDS011;16323;51.130;6.612;2022-11-15T04:30:31;1.58;;;1.10;;
29320;SDS011;16323;51.130;6.612;2022-11-15T04:32:59;2.15;;;1.27;;
29320;SDS011;16323;51.130;6.612;2022-11-15T04:35:26;1.35;;;1.23;;
29320;SDS011;16323;51.130;6.612;2022-11-15T04:37:53;1.20;;;1.00;;
29320;SDS011;16323;51.130;6.612;2022-11-15T04:40:20;1.98;;;1.25;;
29320;SDS011;16323;51.130;6.612;2022-11-15T04:42:47;1.67;;;1.10;;
29320;SDS011;16323;51.130;6.612;2022-11-15T04:45:14;1.45;;;1.10;;
29320;SDS011;16323;51.130;6.612;2022-11-15T04:47:42;1.30;;;1.00;;
29320;SDS011;16323;51.130;6.612;2022-11-15T04:50:12;1.45;;;1.20;;
29320;SDS011;16323;51.130;6.612;2022-11-15T04:52:40;1.98;;;1.20;;
29320;SDS011;16323;51.130;6.612;2022-11-15T04:55:07;1.90;;;1.25;;
29320;SDS011;16323;51.130;6.612;2022-11-15T04:57:34;1.42;;;1.08;;
29320;SDS011;16323;51.130;6.612;2022-11-15T05:00:01;1.77;;;1.27;;
29320;SDS011;16323;51.130;6.612;2022-11-15T05:02:29;2.47;;;1.25;;
29320;SDS011;16323;51.130;6.612;2022-11-15T05:05:18;1.63;;;1.17;;
29320;SDS011;16323;51.130;6.612;2022-11-15T05:07:43;1.45;;;1.25;;
29320;SDS011;16323;51.130;6.612;2022-11-15T05:10:10;1.85;;;1.15;;
29320;SDS011;16323;51.130;6.612;2022-11-15T05:12:37;1.48;;;1.20;;
29320;SDS011;16323;51.130;6.612;2022-11-15T05:15:04;2.38;;;0.90;;
29320;SDS011;16323;51.130;6.612;2022-11-15T05:17:32;1.75;;;1.20;;
29320;SDS011;16323;51.130;6.612;2022-11-15T05:19:58;1.58;;;0.98;;
29320;SDS011;16323;51.130;6.612;2022-11-15T05:22:26;0.98;;;0.90;;
29320;SDS011;16323;51.130;6.612;2022-11-15T05:24:53;1.15;;;1.02;;
29320;SDS011;16323;51.130;6.612;2022-11-15T05:27:20;1.48;;;1.08;;
29320;SDS011;16323;51.130;6.612;2022-11-15T05:29:47;1.80;;;1.10;;
29320;SDS011;16323;51.130;6.612;2022-11-15T05:32:14;1.00;;;0.90;;
29320;SDS011;16323;51.130;6.612;2022-11-15T05:34:42;1.88;;;1.10;;
29320;SDS011;16323;51.130;6.612;2022-11-15T05:37:09;1.02;;;0.85;;
29320;SDS011;16323;51.130;6.612;2022-11-15T05:39:37;2.05;;;1.23;;
29320;SDS011;16323;51.130;6.612;2022-11-15T05:42:05;1.20;;;1.00;;
29320;SDS011;16323;51.130;6.612;2022-11-15T05:44:36;1.55;;;1.20;;
29320;SDS011;16323;51.130;6.612;2022-11-15T05:47:03;2.05;;;1.13;;
29320;SDS011;16323;51.130;6.612;2022-11-15T05:49:34;1.73;;;1.15;;
29320;SDS011;16323;51.130;6.612;2022-11-15T05:52:03;1.60;;;1.00;;
29320;SDS011;16323;51.130;6.612;2022-11-15T05:54:32;1.98;;;1.15;;
29320;SDS011;16323;51.130;6.612;2022-11-15T05:57:03;1.10;;;0.85;;
29320;SDS011;16323;51.130;6.612;2022-11-15T05:59:31;1.27;;;1.00;;
29320;SDS011;16323;51.130;6.612;2022-11-15T06:01:59;1.65;;;1.10;;
29320;SDS011;16323;51.130;6.612;2022-11-15T06:04:26;2.28;;;1.08;;
29320;SDS011;16323;51.130;6.612;2022-11-15T06:06:53;1.60;;;1.13;;
29320;SDS011;16323;51.130;6.612;2022-11-15T06:09:19;2.33;;;1.52;;
29320;SDS011;16323;51.130;6.612;2022-11-15T06:11:46;1.83;;;1.40;;
29320;SDS011;16323;51.130;6.612;2022-11-15T06:14:15;1.45;;;1.17;;
29320;SDS011;16323;51.130;6.612;2022-11-15T06:16:42;1.83;;;1.20;;
29320;SDS011;16323;51.130;6.612;2022-11-15T06:19:09;1.98;;;1.25;;
29320;SDS011;16323;51.130;6.612;2022-11-15T06:21:36;1.17;;;1.08;;
29320;SDS011;16323;51.130;6.612;2022-11-15T06:24:03;2.13;;;1.02;;
29320;SDS011;16323;51.130;6.612;2022-11-15T06:26:31;1.02;;;0.75;;
29320;SDS011;16323;51.130;6.612;2022-11-15T06:28:58;1.55;;;1.13;;
29320;SDS011;16323;51.130;6.612;2022-11-15T06:31:26;1.17;;;0.90;;
29320;SDS011;16323;51.130;6.612;2022-11-15T06:33:53;1.40;;;0.90;;
29320;SDS011;16323;51.130;6.612;2022-11-15T06:36:20;1.33;;;0.90;;
29320;SDS011;16323;51.130;6.612;2022-11-15T06:38:46;1.65;;;1.20;;
29320;SDS011;16323;51.130;6.612;2022-11-15T06:41:13;0.82;;;0.80;;
29320;SDS011;16323;51.130;6.612;2022-11-15T06:43:41;1.17;;;0.90;;
29320;SDS011;16323;51.130;6.612;2022-11-15T06:46:08;1.48;;;0.90;;
29320;SDS011;16323;51.130;6.612;2022-11-15T06:48:37;1.30;;;0.90;;
29320;SDS011;16323;51.130;6.612;2022-11-15T06:51:04;1.50;;;1.10;;
29320;SDS011;16323;51.130;6.612;2022-11-15T06:53:32;1.25;;;0.90;;
29320;SDS011;16323;51.130;6.612;2022-11-15T06:55:59;1.13;;;0.90;;
29320;SDS011;16323;51.130;6.612;2022-11-15T06:58:26;1.17;;;0.98;;
29320;SDS011;16323;51.130;6.612;2022-11-15T07:00:53;1.98;;;0.98;;
29320;SDS011;16323;51.130;6.612;2022-11-15T07:03:24;1.48;;;0.88;;
29320;SDS011;16323;51.130;6.612;2022-11-15T07:05:54;0.90;;;0.80;;
29320;SDS011;16323;51.130;6.612;2022-11-15T07:08:21;2.03;;;0.85;;
29320;SDS011;16323;51.130;6.612;2022-11-15T07:10:49;1.10;;;0.70;;
29320;SDS011;16323;51.130;6.612;2022-11-15T07:13:16;0.98;;;0.50;;
29320;SDS011;16323;51.130;6.612;2022-11-15T07:15:42;1.42;;;0.80;;
29320;SDS011;16323;51.130;6.612;2022-11-15T07:18:09;1.10;;;0.60;;
29320;SDS011;16323;51.130;6.612;2022-11-15T07:20:36;0.68;;;0.65;;
29320;SDS011;16323;51.130;6.612;2022-11-15T07:23:06;1.05;;;0.75;;
29320;SDS011;16323;51.130;6.612;2022-11-15T07:25:32;0.80;;;0.65;;
29320;SDS011;16323;51.130;6.612;2022-11-15T07:28:00;3.00;;;0.90;;
29320;SDS011;16323;51.130;6.612;2022-11-15T07:30:27;3.33;;;0.75;;
29320;SDS011;16323;51.130;6.612;2022-11-15T07:32:56;2.25;;;0.93;;
29320;SDS011;16323;51.130;6.612;2022-11-15T07:35:24;5.28;;;0.73;;
29320;SDS011;16323;51.130;6.612;2022-11-15T07:37:55;0.88;;;0.50;;
29320;SDS011;16323;51.130;6.612;2022-11-15T07:40:25;1.40;;;0.80;;
29320;SDS011;16323;51.130;6.612;2022-11-15T07:42:52;1.15;;;0.60;;
29320;SDS011;16323;51.130;6.612;2022-11-15T07:45:24;3.30;;;0.80;;
29320;SDS011;16323;51.130;6.612;2022-11-15T07:47:52;0.85;;;0.60;;
29320;SDS011;16323;51.130;6.612;2022-11-15T07:50:20;1.63;;;0.80;;
29320;SDS011;16323;51.130;6.612;2022-11-15T07:52:52;0.82;;;0.70;;
29320;SDS011;16323;51.130;6.612;2022-11-15T07:55:20;1.85;;;0.70;;
29320;SDS011;16323;51.130;6.612;2022-11-15T07:57:48;0.50;;;0.50;;
29320;SDS011;16323;51.130;6.612;2022-11-15T08:00:15;1.13;;;0.55;;
29320;SDS011;16323;51.130;6.612;2022-11-15T08:02:43;0.77;;;0.57;;
29320;SDS011;16323;51.130;6.612;2022-11-15T08:05:09;1.08;;;0.70;;
29320;SDS011;16323;51.130;6.612;2022-11-15T08:07:36;1.63;;;0.85;;
29320;SDS011;16323;51.130;6.612;2022-11-15T08:10:05;1.95;;;0.70;;
29320;SDS011;16323;51.130;6.612;2022-11-15T08:12:33;0.80;;;0.50;;
29320;SDS011;16323;51.130;6.612;2022-11-15T08:15:01;1.75;;;0.40;;
29320;SDS011;16323;51.130;6.612;2022-11-15T08:17:28;0.95;;;0.68;;
29320;SDS011;16323;51.130;6.612;2022-11-15T08:19:57;0.60;;;0.50;;
29320;SDS011;16323;51.130;6.612;2022-11-15T08:22:24;0.50;;;0.40;;
29320;SDS011;16323;51.130;6.612;2022-11-15T08:24:51;1.08;;;0.60;;
29320;SDS011;16323;51.130;6.612;2022-11-15T08:27:18;1.02;;;0.60;;
29320;SDS011;16323;51.130;6.612;2022-11-15T08:29:45;0.80;;;0.60;;
29320;SDS011;16323;51.130;6.612;2022-11-15T08:32:14;1.47;;;0.50;;
29320;SDS011;16323;51.130;6.612;2022-11-15T08:34:42;0.45;;;0.43;;
29320;SDS011;16323;51.130;6.612;2022-11-15T08:37:09;0.90;;;0.52;;
29320;SDS011;16323;51.130;6.612;2022-11-15T08:39:36;0.60;;;0.50;;
29320;SDS011;16323;51.130;6.612;2022-11-15T08:42:03;0.50;;;0.45;;
29320;SDS011;16323;51.130;6.612;2022-11-15T08:44:30;1.05;;;0.50;;
29320;SDS011;16323;51.130;6.612;2022-11-15T08:46:56;0.98;;;0.50;;
29320;SDS011;16323;51.130;6.612;2022-11-15T08:49:24;0.73;;;0.40;;
29320;SDS011;16323;51.130;6.612;2022-11-15T08:51:51;1.33;;;0.45;;
29320;SDS011;16323;51.130;6.612;2022-11-15T08:54:18;0.43;;;0.38;;
29320;SDS011;16323;51.130;6.612;2022-11-15T08:56:45;0.63;;;0.40;;
29320;SDS011;16323;51.130;6.612;2022-11-15T08:59:11;0.50;;;0.30;;
29320;SDS011;16323;51.130;6.612;2022-11-15T09:01:38;0.85;;;0.40;;
29320;SDS011;16323;51.130;6.612;2022-11-15T09:04:05;0.60;;;0.40;;
29320;SDS011;16323;51.130;6.612;2022-11-15T09:06:33;1.13;;;0.70;;
29320;SDS011;16323;51.130;6.612;2022-11-15T09:09:00;0.60;;;0.50;;
29320;SDS011;16323;51.130;6.612;2022-11-15T09:11:27;0.60;;;0.47;;
29320;SDS011;16323;51.130;6.612;2022-11-15T09:13:54;0.77;;;0.47;;
29320;SDS011;16323;51.130;6.612;2022-11-15T09:16:21;1.75;;;0.52;;
29320;SDS011;16323;51.130;6.612;2022-11-15T09:18:47;1.23;;;0.57;;
29320;SDS011;16323;51.130;6.612;2022-11-15T09:21:14;0.98;;;0.50;;
29320;SDS011;16323;51.130;6.612;2022-11-15T09:23:44;0.93;;;0.45;;
29320;SDS011;16323;51.130;6.612;2022-11-15T09:26:11;1.02;;;0.40;;
29320;SDS011;16323;51.130;6.612;2022-11-15T09:28:37;1.45;;;0.70;;
29320;SDS011;16323;51.130;6.612;2022-11-15T09:31:06;0.30;;;0.30;;
29320;SDS011;16323;51.130;6.612;2022-11-15T09:33:33;0.60;;;0.40;;
29320;SDS011;16323;51.130;6.612;2022-11-15T09:36:00;0.45;;;0.28;;
29320;SDS011;16323;51.130;6.612;2022-11-15T09:38:29;0.77;;;0.40;;
29320;SDS011;16323;51.130;6.612;2022-11-15T09:41:05;1.23;;;0.50;;
29320;SDS011;16323;51.130;6.612;2022-11-15T09:43:45;0.88;;;0.40;;
29320;SDS011;16323;51.130;6.612;2022-11-15T09:46:23;2.25;;;0.50;;
29320;SDS011;16323;51.130;6.612;2022-11-15T09:49:00;1.20;;;0.50;;
29320;SDS011;16323;51.130;6.612;2022-11-15T09:51:29;0.70;;;0.50;;
29320;SDS011;16323;51.130;6.612;2022-11-15T09:54:01;0.88;;;0.50;;
29320;SDS011;16323;51.130;6.612;2022-11-15T09:56:34;0.40;;;0.40;;
29320;SDS011;16323;51.130;6.612;2022-11-15T09:59:07;0.75;;;0.40;;
29320;SDS011;16323;51.130;6.612;2022-11-15T10:01:54;0.60;;;0.40;;
29320;SDS011;16323;51.130;6.612;2022-11-15T10:04:25;0.60;;;0.32;;
29320;SDS011;16323;51.130;6.612;2022-11-15T10:06:54;1.20;;;0.70;;
29320;SDS011;16323;51.130;6.612;2022-11-15T10:09:28;0.60;;;0.40;;
29320;SDS011;16323;51.130;6.612;2022-11-15T10:12:01;0.45;;;0.40;;
29320;SDS011;16323;51.130;6.612;2022-11-15T10:14:29;1.27;;;0.45;;
29320;SDS011;16323;51.130;6.612;2022-11-15T10:17:09;0.77;;;0.57;;
29320;SDS011;16323;51.130;6.612;2022-11-15T10:19:53;0.38;;;0.38;;
29320;SDS011;16323;51.130;6.612;2022-11-15T10:22:28;0.80;;;0.50;;
29320;SDS011;16323;51.130;6.612;2022-11-15T10:25:01;0.52;;;0.40;;
29320;SDS011;16323;51.130;6.612;2022-11-15T10:27:44;0.82;;;0.47;;
29320;SDS011;16323;51.130;6.612;2022-11-15T10:30:16;1.17;;;0.35;;
29320;SDS011;16323;51.130;6.612;2022-11-15T10:32:45;0.68;;;0.40;;
29320;SDS011;16323;51.130;6.612;2022-11-15T10:35:18;0.68;;;0.50;;
29320;SDS011;16323;51.130;6.612;2022-11-15T10:37:46;0.40;;;0.35;;
29320;SDS011;16323;51.130;6.612;2022-11-15T10:40:18;0.70;;;0.40;;
29320;SDS011;16323;51.130;6.612;2022-11-15T10:42:48;0.75;;;0.40;;
29320;SDS011;16323;51.130;6.612;2022-11-15T10:45:31;0.90;;;0.52;;
29320;SDS011;16323;51.130;6.612;2022-11-15T10:50:46;1.58;;;0.55;;
29320;SDS011;16323;51.130;6.612;2022-11-15T10:53:15;0.70;;;0.40;;
29320;SDS011;16323;51.130;6.612;2022-11-15T10:55:47;1.40;;;0.30;;
29320;SDS011;16323;51.130;6.612;2022-11-15T10:58:22;0.28;;;0.28;;
29320;SDS011;16323;51.130;6.612;2022-11-15T11:01:05;1.52;;;0.52;;
29320;SDS011;16323;51.130;6.612;2022-11-15T11:03:36;0.75;;;0.35;;
29320;SDS011;16323;51.130;6.612;2022-11-15T11:06:06;0.77;;;0.40;;
29320;SDS011;16323;51.130;6.612;2022-11-15T11:08:34;0.88;;;0.40;;
29320;SDS011;16323;51.130;6.612;2022-11-15T11:11:02;0.75;;;0.30;;
29320;SDS011;16323;51.130;6.612;2022-11-15T11:13:31;0.60;;;0.30;;
29320;SDS011;16323;51.130;6.612;2022-11-15T11:16:14;0.60;;;0.40;;
29320;SDS011;16323;51.130;6.612;2022-11-15T11:19:04;0.45;;;0.25;;
29320;SDS011;16323;51.130;6.612;2022-11-15T11:21:45;0.73;;;0.30;;
29320;SDS011;16323;51.130;6.612;2022-11-15T11:24:18;1.08;;;0.50;;
29320;SDS011;16323;51.130;6.612;2022-11-15T11:26:55;0.47;;;0.40;;
29320;SDS011;16323;51.130;6.612;2022-11-15T11:29:37;1.55;;;0.40;;
29320;SDS011;16323;51.130;6.612;2022-11-15T11:32:30;0.40;;;0.40;;
29320;SDS011;16323;51.130;6.612;2022-11-15T11:35:13;1.02;;;0.50;;
29320;SDS011;16323;51.130;6.612;2022-11-15T11:37:46;1.65;;;0.47;;
29320;SDS011;16323;51.130;6.612;2022-11-15T11:40:20;0.50;;;0.30;;
29320;SDS011;16323;51.130;6.612;2022-11-15T11:42:58;0.20;;;0.20;;
29320;SDS011;16323;51.130;6.612;2022-11-15T11:45:44;1.25;;;0.45;;
29320;SDS011;16323;51.130;6.612;2022-11-15T11:48:30;0.40;;;0.30;;
29320;SDS011;16323;51.130;6.612;2022-11-15T11:51:10;1.02;;;0.30;;
29320;SDS011;16323;51.130;6.612;2022-11-15T11:53:46;0.75;;;0.30;;
29320;SDS011;16323;51.130;6.612;2022-11-15T11:56:19;0.75;;;0.30;;
29320;SDS011;16323;51.130;6.612;2022-11-15T11:58:52;0.73;;;0.35;;
29320;SDS011;16323;51.130;6.612;2022-11-15T12:01:23;0.20;;;0.20;;
29320;SDS011;16323;51.130;6.612;2022-11-15T12:03:54;0.80;;;0.50;;
29320;SDS011;16323;51.130;6.612;2022-11-15T12:06:27;0.98;;;0.50;;
29320;SDS011;16323;51.130;6.612;2022-11-15T12:09:01;1.05;;;0.32;;
29320;SDS011;16323;51.130;6.612;2022-11-15T12:11:35;0.80;;;0.30;;
29320;SDS011;16323;51.130;6.612;2022-11-15T12:14:10;0.88;;;0.30;;
29320;SDS011;16323;51.130;6.612;2022-11-15T12:16:44;1.35;;;0.50;;
29320;SDS011;16323;51.130;6.612;2022-11-15T12:19:11;0.75;;;0.30;;
29320;SDS011;16323;51.130;6.612;2022-11-15T12:21:39;0.73;;;0.40;;
29320;SDS011;16323;51.130;6.612;2022-11-15T12:24:13;0.55;;;0.30;;
29320;SDS011;16323;51.130;6.612;2022-11-15T12:26:46;0.57;;;0.38;;
29320;SDS011;16323;51.130;6.612;2022-11-15T12:29:18;1.48;;;0.30;;
29320;SDS011;16323;51.130;6.612;2022-11-15T12:31:52;0.43;;;0.30;;
29320;SDS011;16323;51.130;6.612;2022-11-15T12:34:39;0.77;;;0.30;;
29320;SDS011;16323;51.130;6.612;2022-11-15T12:40:26;0.95;;;0.35;;
29320;SDS011;16323;51.130;6.612;2022-11-15T12:46:10;0.63;;;0.30;;
29320;SDS011;16323;51.130;6.612;2022-11-15T12:48:48;0.95;;;0.47;;
29320;SDS011;16323;51.130;6.612;2022-11-15T12:57:30;0.50;;;0.25;;
29320;SDS011;16323;51.130;6.612;2022-11-15T13:00:05;0.20;;;0.20;;
29320;SDS011;16323;51.130;6.612;2022-11-15T13:03:16;1.50;;;0.40;;
29320;SDS011;16323;51.130;6.612;2022-11-15T13:06:07;0.95;;;0.45;;
29320;SDS011;16323;51.130;6.612;2022-11-15T13:08:48;0.60;;;0.30;;
29320;SDS011;16323;51.130;6.612;2022-11-15T13:17:28;0.10;;;0.10;;
29320;SDS011;16323;51.130;6.612;2022-11-15T13:23:01;0.57;;;0.30;;
29320;SDS011;16323;51.130;6.612;2022-11-15T13:25:43;0.50;;;0.25;;
29320;SDS011;16323;51.130;6.612;2022-11-15T13:28:20;0.77;;;0.30;;
29320;SDS011;16323;51.130;6.612;2022-11-15T13:30:51;0.45;;;0.30;;
29320;SDS011;16323;51.130;6.612;2022-11-15T13:33:20;0.52;;;0.20;;
29320;SDS011;16323;51.130;6.612;2022-11-15T13:35:49;1.20;;;0.20;;
29320;SDS011;16323;51.130;6.612;2022-11-15T13:38:26;0.60;;;0.30;;
29320;SDS011;16323;51.130;6.612;2022-11-15T13:40:54;1.35;;;0.30;;
29320;SDS011;16323;51.130;6.612;2022-11-15T13:43:31;1.20;;;0.30;;
29320;SDS011;16323;51.130;6.612;2022-11-15T13:46:05;0.75;;;0.38;;
29320;SDS011;16323;51.130;6.612;2022-11-15T13:48:33;0.68;;;0.30;;
29320;SDS011;16323;51.130;6.612;2022-11-15T13:51:00;0.30;;;0.25;;
29320;SDS011;16323;51.130;6.612;2022-11-15T13:53:31;0.95;;;0.35;;
29320;SDS011;16323;51.130;6.612;2022-11-15T13:55:59;0.95;;;0.40;;
29320;SDS011;16323;51.130;6.612;2022-11-15T13:58:28;1.42;;;0.47;;
29320;SDS011;16323;51.130;6.612;2022-11-15T14:00:59;0.88;;;0.50;;
29320;SDS011;16323;51.130;6.612;2022-11-15T14:03:28;2.78;;;0.50;;
29320;SDS011;16323;51.130;6.612;2022-11-15T14:08:58;24.52;;;1.45;;
29320;SDS011;16323;51.130;6.612;2022-11-15T14:11:48;3.20;;;0.88;;
29320;SDS011;16323;51.130;6.612;2022-11-15T14:14:17;3.85;;;0.60;;
29320;SDS011;16323;51.130;6.612;2022-11-15T14:16:47;3.10;;;0.47;;
29320;SDS011;16323;51.130;6.612;2022-11-15T14:22:08;1.48;;;0.30;;
29320;SDS011;16323;51.130;6.612;2022-11-15T14:24:37;1.70;;;0.60;;
29320;SDS011;16323;51.130;6.612;2022-11-15T14:27:22;4.28;;;0.90;;
29320;SDS011;16323;51.130;6.612;2022-11-15T14:29:50;2.33;;;0.70;;
29320;SDS011;16323;51.130;6.612;2022-11-15T14:32:18;0.80;;;0.45;;
29320;SDS011;16323;51.130;6.612;2022-11-15T14:34:46;0.65;;;0.30;;
29320;SDS011;16323;51.130;6.612;2022-11-15T14:37:21;2.10;;;0.70;;
29320;SDS011;16323;51.130;6.612;2022-11-15T14:39:50;3.78;;;0.47;;
29320;SDS011;16323;51.130;6.612;2022-11-15T14:42:17;1.17;;;0.50;;
29320;SDS011;16323;51.130;6.612;2022-11-15T14:44:45;1.17;;;0.60;;
29320;SDS011;16323;51.130;6.612;2022-11-15T14:47:12;1.45;;;0.80;;
29320;SDS011;16323;51.130;6.612;2022-11-15T14:49:39;0.55;;;0.40;;
29320;SDS011;16323;51.130;6.612;2022-11-15T14:52:10;1.92;;;0.68;;
29320;SDS011;16323;51.130;6.612;2022-11-15T14:54:54;1.02;;;0.60;;
29320;SDS011;16323;51.130;6.612;2022-11-15T14:57:21;0.50;;;0.43;;
29320;SDS011;16323;51.130;6.612;2022-11-15T14:59:48;1.73;;;0.57;;
29320;SDS011;16323;51.130;6.612;2022-11-15T15:02:15;0.75;;;0.50;;
29320;SDS011;16323;51.130;6.612;2022-11-15T15:04:49;1.65;;;0.60;;
29320;SDS011;16323;51.130;6.612;2022-11-15T15:07:16;1.27;;;0.60;;
29320;SDS011;16323;51.130;6.612;2022-11-15T15:09:43;0.50;;;0.50;;
29320;SDS011;16323;51.130;6.612;2022-11-15T15:12:14;2.65;;;0.80;;
29320;SDS011;16323;51.130;6.612;2022-11-15T15:14:43;0.98;;;0.60;;
29320;SDS011;16323;51.130;6.612;2022-11-15T15:17:11;1.33;;;0.75;;
29320;SDS011;16323;51.130;6.612;2022-11-15T15:19:38;0.80;;;0.52;;
29320;SDS011;16323;51.130;6.612;2022-11-15T15:22:05;1.05;;;0.75;;
29320;SDS011;16323;51.130;6.612;2022-11-15T15:24:32;1.52;;;0.57;;
29320;SDS011;16323;51.130;6.612;2022-11-15T15:26:58;0.85;;;0.57;;
29320;SDS011;16323;51.130;6.612;2022-11-15T15:29:26;0.77;;;0.55;;
29320;SDS011;16323;51.130;6.612;2022-11-15T15:31:53;0.90;;;0.60;;
29320;SDS011;16323;51.130;6.612;2022-11-15T15:34:20;1.15;;;0.70;;
29320;SDS011;16323;51.130;6.612;2022-11-15T15:36:47;1.95;;;0.50;;
29320;SDS011;16323;51.130;6.612;2022-11-15T15:39:13;1.60;;;0.50;;
29320;SDS011;16323;51.130;6.612;2022-11-15T15:41:40;1.50;;;0.80;;
29320;SDS011;16323;51.130;6.612;2022-11-15T15:44:07;1.10;;;0.55;;
29320;SDS011;16323;51.130;6.612;2022-11-15T15:46:35;2.15;;;1.20;;